sensor_id;sensor_type;location;lat;lon;timestamp;temperature;humidity
28548;DHT22;68292;49.600;8.746;2023-04-21T00:01:18;16.30;47.60
28548;DHT22;68292;49.600;8.746;2023-04-21T00:03:46;16.20;47.50
28548;DHT22;68292;49.600;8.746;2023-04-21T00:06:15;16.20;47.60
28548;DHT22;68292;49.600;8.746;2023-04-21T00:08:49;16.20;47.70
28548;DHT22;68292;49.600;8.746;2023-04-21T00:11:18;16.20;47.50
28548;DHT22;68292;49.600;8.746;2023-04-21T00:13:46;16.20;47.40
28548;DHT22;68292;49.600;8.746;2023-04-21T00:16:16;16.20;47.50
28548;DHT22;68292;49.600;8.746;2023-04-21T00:18:46;16.20;47.60
28548;DHT22;68292;49.600;8.746;2023-04-21T00:21:15;16.10;47.60
28548;DHT22;68292;49.600;8.746;2023-04-21T00:23:44;16.10;47.50
28548;DHT22;68292;49.600;8.746;2023-04-21T00:26:15;16.10;47.50
28548;DHT22;68292;49.600;8.746;2023-04-21T00:28:46;16.10;47.50
28548;DHT22;68292;49.600;8.746;2023-04-21T00:31:16;16.10;47.50
28548;DHT22;68292;49.600;8.746;2023-04-21T00:33:45;16.10;47.60
28548;DHT22;68292;49.600;8.746;2023-04-21T00:36:14;16.10;47.60
28548;DHT22;68292;49.600;8.746;2023-04-21T00:38:42;16.10;47.50
28548;DHT22;68292;49.600;8.746;2023-04-21T00:41:11;16.00;47.50
28548;DHT22;68292;49.600;8.746;2023-04-21T00:44:01;16.00;47.60
28548;DHT22;68292;49.600;8.746;2023-04-21T00:46:32;16.00;47.80
28548;DHT22;68292;49.600;8.746;2023-04-21T00:49:03;16.00;47.60
28548;DHT22;68292;49.600;8.746;2023-04-21T00:51:34;16.00;47.60
28548;DHT22;68292;49.600;8.746;2023-04-21T00:54:05;16.00;47.60
28548;DHT22;68292;49.600;8.746;2023-04-21T00:56:35;16.00;47.60
28548;DHT22;68292;49.600;8.746;2023-04-21T00:59:04;16.00;47.60
28548;DHT22;68292;49.600;8.746;2023-04-21T01:01:34;16.00;47.60
28548;DHT22;68292;49.600;8.746;2023-04-21T01:04:04;16.00;47.70
28548;DHT22;68292;49.600;8.746;2023-04-21T01:06:33;16.00;47.70
28548;DHT22;68292;49.600;8.746;2023-04-21T01:09:02;15.90;47.60
28548;DHT22;68292;49.600;8.746;2023-04-21T01:11:31;15.90;47.60
28548;DHT22;68292;49.600;8.746;2023-04-21T01:14:00;15.90;47.60
28548;DHT22;68292;49.600;8.746;2023-04-21T01:16:29;15.90;47.60
28548;DHT22;68292;49.600;8.746;2023-04-21T01:19:01;15.90;47.70
28548;DHT22;68292;49.600;8.746;2023-04-21T01:21:42;15.90;47.70
28548;DHT22;68292;49.600;8.746;2023-04-21T01:24:37;15.90;47.90
28548;DHT22;68292;49.600;8.746;2023-04-21T01:27:10;15.90;47.70
28548;DHT22;68292;49.600;8.746;2023-04-21T01:29:41;15.90;47.60
28548;DHT22;68292;49.600;8.746;2023-04-21T01:32:14;15.90;47.60
28548;DHT22;68292;49.600;8.746;2023-04-21T01:34:45;15.90;47.70
28548;DHT22;68292;49.600;8.746;2023-04-21T01:37:18;15.90;47.60
28548;DHT22;68292;49.600;8.746;2023-04-21T01:39:52;15.80;47.60
28548;DHT22;68292;49.600;8.746;2023-04-21T01:42:24;15.80;47.60
28548;DHT22;68292;49.600;8.746;2023-04-21T01:44:54;15.80;47.70
28548;DHT22;68292;49.600;8.746;2023-04-21T01:47:23;15.80;47.50
28548;DHT22;68292;49.600;8.746;2023-04-21T01:49:52;15.80;47.60
28548;DHT22;68292;49.600;8.746;2023-04-21T01:52:23;15.80;47.60
28548;DHT22;68292;49.600;8.746;2023-04-21T01:54:53;15.80;47.60
28548;DHT22;68292;49.600;8.746;2023-04-21T01:57:22;15.70;47.60
28548;DHT22;68292;49.600;8.746;2023-04-21T01:59:51;15.70;47.60
28548;DHT22;68292;49.600;8.746;2023-04-21T02:02:20;15.70;47.60
28548;DHT22;68292;49.600;8.746;2023-04-21T02:04:50;15.70;47.50
28548;DHT22;68292;49.600;8.746;2023-04-21T02:07:20;15.70;47.50
28548;DHT22;68292;49.600;8.746;2023-04-21T02:09:50;15.70;47.50
28548;DHT22;68292;49.600;8.746;2023-04-21T02:12:18;15.70;47.70
28548;DHT22;68292;49.600;8.746;2023-04-21T02:14:47;15.70;47.70
28548;DHT22;68292;49.600;8.746;2023-04-21T02:17:17;15.70;47.70
28548;DHT22;68292;49.600;8.746;2023-04-21T02:19:46;15.70;47.70
28548;DHT22;68292;49.600;8.746;2023-04-21T02:22:14;15.70;47.80
28548;DHT22;68292;49.600;8.746;2023-04-21T02:24:43;15.70;47.80
28548;DHT22;68292;49.600;8.746;2023-04-21T02:27:13;15.70;47.80
28548;DHT22;68292;49.600;8.746;2023-04-21T02:29:42;15.60;47.80
28548;DHT22;68292;49.600;8.746;2023-04-21T02:32:10;15.70;47.80
28548;DHT22;68292;49.600;8.746;2023-04-21T02:34:52;15.60;47.70
28548;DHT22;68292;49.600;8.746;2023-04-21T02:37:21;15.60;47.60
28548;DHT22;68292;49.600;8.746;2023-04-21T02:39:52;15.60;47.60
28548;DHT22;68292;49.600;8.746;2023-04-21T02:42:22;15.60;47.50
28548;DHT22;68292;49.600;8.746;2023-04-21T02:44:51;15.60;47.50
28548;DHT22;68292;49.600;8.746;2023-04-21T02:47:20;15.60;47.50
28548;DHT22;68292;49.600;8.746;2023-04-21T02:49:49;15.60;47.40
28548;DHT22;68292;49.600;8.746;2023-04-21T02:52:17;15.60;47.40
28548;DHT22;68292;49.600;8.746;2023-04-21T02:54:46;15.50;47.30
28548;DHT22;68292;49.600;8.746;2023-04-21T02:57:14;15.50;47.40
28548;DHT22;68292;49.600;8.746;2023-04-21T02:59:44;15.50;47.40
28548;DHT22;68292;49.600;8.746;2023-04-21T03:02:13;15.50;47.50
28548;DHT22;68292;49.600;8.746;2023-04-21T03:04:42;15.50;47.40
28548;DHT22;68292;49.600;8.746;2023-04-21T03:07:11;15.50;47.50
28548;DHT22;68292;49.600;8.746;2023-04-21T03:09:40;15.50;47.40
28548;DHT22;68292;49.600;8.746;2023-04-21T03:12:09;15.50;47.40
28548;DHT22;68292;49.600;8.746;2023-04-21T03:14:37;15.50;47.40
28548;DHT22;68292;49.600;8.746;2023-04-21T03:17:07;15.50;47.40
28548;DHT22;68292;49.600;8.746;2023-04-21T03:19:36;15.50;47.40
28548;DHT22;68292;49.600;8.746;2023-04-21T03:22:05;15.40;47.30
28548;DHT22;68292;49.600;8.746;2023-04-21T03:24:34;15.40;47.30
28548;DHT22;68292;49.600;8.746;2023-04-21T03:27:04;15.40;47.20
28548;DHT22;68292;49.600;8.746;2023-04-21T03:29:36;15.40;47.30
28548;DHT22;68292;49.600;8.746;2023-04-21T03:32:05;15.40;47.20
28548;DHT22;68292;49.600;8.746;2023-04-21T03:34:36;15.40;47.20
28548;DHT22;68292;49.600;8.746;2023-04-21T03:37:04;15.40;47.20
28548;DHT22;68292;49.600;8.746;2023-04-21T03:39:33;15.40;47.20
28548;DHT22;68292;49.600;8.746;2023-04-21T03:42:02;15.40;47.30
28548;DHT22;68292;49.600;8.746;2023-04-21T03:44:31;15.30;47.30
28548;DHT22;68292;49.600;8.746;2023-04-21T03:47:01;15.30;47.40
28548;DHT22;68292;49.600;8.746;2023-04-21T03:49:33;15.30;47.30
28548;DHT22;68292;49.600;8.746;2023-04-21T03:52:02;15.30;47.40
28548;DHT22;68292;49.600;8.746;2023-04-21T03:54:31;15.30;47.20
28548;DHT22;68292;49.600;8.746;2023-04-21T03:56:59;15.30;47.20
28548;DHT22;68292;49.600;8.746;2023-04-21T03:59:28;15.30;47.20
28548;DHT22;68292;49.600;8.746;2023-04-21T04:01:57;15.30;47.10
28548;DHT22;68292;49.600;8.746;2023-04-21T04:04:25;15.30;47.10
28548;DHT22;68292;49.600;8.746;2023-04-21T04:06:56;15.30;47.00
28548;DHT22;68292;49.600;8.746;2023-04-21T04:09:25;15.30;46.90
28548;DHT22;68292;49.600;8.746;2023-04-21T04:11:54;15.30;46.80
28548;DHT22;68292;49.600;8.746;2023-04-21T04:14:22;15.30;46.80
28548;DHT22;68292;49.600;8.746;2023-04-21T04:16:51;15.20;46.80
28548;DHT22;68292;49.600;8.746;2023-04-21T04:19:19;15.20;46.70
28548;DHT22;68292;49.600;8.746;2023-04-21T04:21:48;15.20;46.60
28548;DHT22;68292;49.600;8.746;2023-04-21T04:24:18;15.20;46.70
28548;DHT22;68292;49.600;8.746;2023-04-21T04:26:47;15.20;46.70
28548;DHT22;68292;49.600;8.746;2023-04-21T04:29:16;15.20;46.70
28548;DHT22;68292;49.600;8.746;2023-04-21T04:31:45;15.10;46.70
28548;DHT22;68292;49.600;8.746;2023-04-21T04:34:14;15.10;46.70
28548;DHT22;68292;49.600;8.746;2023-04-21T04:36:43;15.10;46.80
28548;DHT22;68292;49.600;8.746;2023-04-21T04:39:12;15.10;46.80
28548;DHT22;68292;49.600;8.746;2023-04-21T04:41:42;15.10;46.80
28548;DHT22;68292;49.600;8.746;2023-04-21T04:44:11;15.10;46.90
28548;DHT22;68292;49.600;8.746;2023-04-21T04:46:41;15.10;47.10
28548;DHT22;68292;49.600;8.746;2023-04-21T04:49:11;15.10;47.20
28548;DHT22;68292;49.600;8.746;2023-04-21T04:51:40;15.10;47.10
28548;DHT22;68292;49.600;8.746;2023-04-21T04:54:08;15.10;47.00
28548;DHT22;68292;49.600;8.746;2023-04-21T04:56:37;15.10;46.90
28548;DHT22;68292;49.600;8.746;2023-04-21T04:59:07;15.10;47.00
28548;DHT22;68292;49.600;8.746;2023-04-21T05:01:36;15.00;46.90
28548;DHT22;68292;49.600;8.746;2023-04-21T05:04:06;15.00;47.00
28548;DHT22;68292;49.600;8.746;2023-04-21T05:06:35;15.00;47.10
28548;DHT22;68292;49.600;8.746;2023-04-21T05:09:04;15.00;47.20
28548;DHT22;68292;49.600;8.746;2023-04-21T05:11:33;15.00;47.30
28548;DHT22;68292;49.600;8.746;2023-04-21T05:14:01;15.00;47.20
28548;DHT22;68292;49.600;8.746;2023-04-21T05:16:32;15.00;47.20
28548;DHT22;68292;49.600;8.746;2023-04-21T05:19:00;15.00;47.30
28548;DHT22;68292;49.600;8.746;2023-04-21T05:21:29;15.00;47.30
28548;DHT22;68292;49.600;8.746;2023-04-21T05:24:02;15.00;47.40
28548;DHT22;68292;49.600;8.746;2023-04-21T05:26:31;15.00;47.40
28548;DHT22;68292;49.600;8.746;2023-04-21T05:29:00;15.00;47.40
28548;DHT22;68292;49.600;8.746;2023-04-21T05:31:28;15.00;47.50
28548;DHT22;68292;49.600;8.746;2023-04-21T05:33:58;15.00;47.40
28548;DHT22;68292;49.600;8.746;2023-04-21T05:36:27;15.00;47.40
28548;DHT22;68292;49.600;8.746;2023-04-21T05:38:56;15.00;47.30
28548;DHT22;68292;49.600;8.746;2023-04-21T05:41:25;15.00;47.30
28548;DHT22;68292;49.600;8.746;2023-04-21T05:43:53;15.00;47.40
28548;DHT22;68292;49.600;8.746;2023-04-21T05:46:22;15.00;47.50
28548;DHT22;68292;49.600;8.746;2023-04-21T05:48:51;15.00;47.60
28548;DHT22;68292;49.600;8.746;2023-04-21T05:51:21;15.00;47.70
28548;DHT22;68292;49.600;8.746;2023-04-21T05:53:49;15.00;47.90
28548;DHT22;68292;49.600;8.746;2023-04-21T05:56:18;15.00;47.90
28548;DHT22;68292;49.600;8.746;2023-04-21T05:58:47;15.00;47.80
28548;DHT22;68292;49.600;8.746;2023-04-21T06:01:15;15.00;47.70
28548;DHT22;68292;49.600;8.746;2023-04-21T06:03:44;15.00;47.70
28548;DHT22;68292;49.600;8.746;2023-04-21T06:06:15;15.00;47.70
28548;DHT22;68292;49.600;8.746;2023-04-21T06:08:47;15.00;47.80
28548;DHT22;68292;49.600;8.746;2023-04-21T06:11:15;15.00;48.00
28548;DHT22;68292;49.600;8.746;2023-04-21T06:13:44;15.00;48.10
28548;DHT22;68292;49.600;8.746;2023-04-21T06:16:13;15.00;48.20
28548;DHT22;68292;49.600;8.746;2023-04-21T06:18:42;15.00;48.30
28548;DHT22;68292;49.600;8.746;2023-04-21T06:21:11;15.00;48.50
28548;DHT22;68292;49.600;8.746;2023-04-21T06:23:39;15.10;48.60
28548;DHT22;68292;49.600;8.746;2023-04-21T06:26:10;15.10;48.70
28548;DHT22;68292;49.600;8.746;2023-04-21T06:28:39;15.10;48.80
28548;DHT22;68292;49.600;8.746;2023-04-21T06:31:08;15.10;48.80
28548;DHT22;68292;49.600;8.746;2023-04-21T06:33:41;15.10;48.90
28548;DHT22;68292;49.600;8.746;2023-04-21T06:36:10;15.20;49.00
28548;DHT22;68292;49.600;8.746;2023-04-21T06:38:38;15.20;49.00
28548;DHT22;68292;49.600;8.746;2023-04-21T06:41:10;15.20;49.20
28548;DHT22;68292;49.600;8.746;2023-04-21T06:43:39;15.20;49.30
28548;DHT22;68292;49.600;8.746;2023-04-21T06:46:08;15.30;49.40
28548;DHT22;68292;49.600;8.746;2023-04-21T06:48:36;15.30;49.50
28548;DHT22;68292;49.600;8.746;2023-04-21T06:51:05;15.30;49.60
28548;DHT22;68292;49.600;8.746;2023-04-21T06:53:34;15.30;49.60
28548;DHT22;68292;49.600;8.746;2023-04-21T06:56:03;15.30;49.70
28548;DHT22;68292;49.600;8.746;2023-04-21T06:58:34;15.40;49.90
28548;DHT22;68292;49.600;8.746;2023-04-21T07:01:02;15.40;50.20
28548;DHT22;68292;49.600;8.746;2023-04-21T07:03:31;15.40;50.00
28548;DHT22;68292;49.600;8.746;2023-04-21T07:06:00;15.50;50.10
28548;DHT22;68292;49.600;8.746;2023-04-21T07:08:29;15.50;50.20
28548;DHT22;68292;49.600;8.746;2023-04-21T07:10:57;15.50;50.20
28548;DHT22;68292;49.600;8.746;2023-04-21T07:13:26;15.50;50.30
28548;DHT22;68292;49.600;8.746;2023-04-21T07:15:56;15.60;50.40
28548;DHT22;68292;49.600;8.746;2023-04-21T07:18:25;15.60;50.60
28548;DHT22;68292;49.600;8.746;2023-04-21T07:20:54;15.60;50.50
28548;DHT22;68292;49.600;8.746;2023-04-21T07:23:23;15.70;50.60
28548;DHT22;68292;49.600;8.746;2023-04-21T07:25:52;15.70;50.60
28548;DHT22;68292;49.600;8.746;2023-04-21T07:28:20;15.70;50.70
28548;DHT22;68292;49.600;8.746;2023-04-21T07:30:49;15.80;50.70
28548;DHT22;68292;49.600;8.746;2023-04-21T07:33:19;15.80;50.70
28548;DHT22;68292;49.600;8.746;2023-04-21T07:35:48;15.80;50.90
28548;DHT22;68292;49.600;8.746;2023-04-21T07:38:17;15.80;50.70
28548;DHT22;68292;49.600;8.746;2023-04-21T07:40:45;15.90;50.70
28548;DHT22;68292;49.600;8.746;2023-04-21T07:43:14;15.90;50.60
28548;DHT22;68292;49.600;8.746;2023-04-21T07:45:43;15.90;50.70
28548;DHT22;68292;49.600;8.746;2023-04-21T07:48:11;16.00;50.80
28548;DHT22;68292;49.600;8.746;2023-04-21T07:50:42;16.00;50.90
28548;DHT22;68292;49.600;8.746;2023-04-21T07:53:10;16.00;51.10
28548;DHT22;68292;49.600;8.746;2023-04-21T07:55:39;16.10;51.10
28548;DHT22;68292;49.600;8.746;2023-04-21T07:58:08;16.10;51.10
28548;DHT22;68292;49.600;8.746;2023-04-21T08:00:37;16.10;51.20
28548;DHT22;68292;49.600;8.746;2023-04-21T08:03:05;16.20;51.20
28548;DHT22;68292;49.600;8.746;2023-04-21T08:05:35;16.20;51.20
28548;DHT22;68292;49.600;8.746;2023-04-21T08:08:09;16.20;51.30
28548;DHT22;68292;49.600;8.746;2023-04-21T08:10:37;16.30;51.50
28548;DHT22;68292;49.600;8.746;2023-04-21T08:13:07;16.30;51.50
28548;DHT22;68292;49.600;8.746;2023-04-21T08:15:35;16.30;51.60
28548;DHT22;68292;49.600;8.746;2023-04-21T08:18:04;16.40;51.80
28548;DHT22;68292;49.600;8.746;2023-04-21T08:20:33;16.40;51.90
28548;DHT22;68292;49.600;8.746;2023-04-21T08:23:02;16.50;51.90
28548;DHT22;68292;49.600;8.746;2023-04-21T08:25:32;16.50;51.80
28548;DHT22;68292;49.600;8.746;2023-04-21T08:28:01;16.50;51.90
28548;DHT22;68292;49.600;8.746;2023-04-21T08:30:30;16.60;51.90
28548;DHT22;68292;49.600;8.746;2023-04-21T08:32:58;16.70;51.90
28548;DHT22;68292;49.600;8.746;2023-04-21T08:35:27;16.70;51.70
28548;DHT22;68292;49.600;8.746;2023-04-21T08:37:56;16.70;51.50
28548;DHT22;68292;49.600;8.746;2023-04-21T08:40:31;16.80;51.40
28548;DHT22;68292;49.600;8.746;2023-04-21T08:43:03;16.80;51.60
28548;DHT22;68292;49.600;8.746;2023-04-21T08:45:33;16.80;51.30
28548;DHT22;68292;49.600;8.746;2023-04-21T08:48:02;16.90;51.20
28548;DHT22;68292;49.600;8.746;2023-04-21T08:50:33;16.90;51.30
28548;DHT22;68292;49.600;8.746;2023-04-21T08:53:03;16.90;51.30
28548;DHT22;68292;49.600;8.746;2023-04-21T08:55:33;16.90;51.50
28548;DHT22;68292;49.600;8.746;2023-04-21T08:58:03;16.90;51.60
28548;DHT22;68292;49.600;8.746;2023-04-21T09:00:32;17.00;51.60
28548;DHT22;68292;49.600;8.746;2023-04-21T09:03:01;17.00;51.60
28548;DHT22;68292;49.600;8.746;2023-04-21T09:05:42;17.00;51.60
28548;DHT22;68292;49.600;8.746;2023-04-21T09:08:12;17.00;51.70
28548;DHT22;68292;49.600;8.746;2023-04-21T09:10:44;17.10;51.80
28548;DHT22;68292;49.600;8.746;2023-04-21T09:13:14;17.10;52.00
28548;DHT22;68292;49.600;8.746;2023-04-21T09:15:49;17.20;52.00
28548;DHT22;68292;49.600;8.746;2023-04-21T09:18:21;17.20;52.30
28548;DHT22;68292;49.600;8.746;2023-04-21T09:20:53;17.30;52.10
28548;DHT22;68292;49.600;8.746;2023-04-21T09:23:39;17.30;52.00
28548;DHT22;68292;49.600;8.746;2023-04-21T09:26:11;17.40;52.20
28548;DHT22;68292;49.600;8.746;2023-04-21T09:28:40;17.50;52.10
28548;DHT22;68292;49.600;8.746;2023-04-21T09:31:14;17.50;52.00
28548;DHT22;68292;49.600;8.746;2023-04-21T09:33:47;17.60;52.20
28548;DHT22;68292;49.600;8.746;2023-04-21T09:36:26;17.70;52.40
28548;DHT22;68292;49.600;8.746;2023-04-21T09:38:58;17.80;52.50
28548;DHT22;68292;49.600;8.746;2023-04-21T09:41:33;17.90;52.30
28548;DHT22;68292;49.600;8.746;2023-04-21T09:44:02;18.00;52.10
28548;DHT22;68292;49.600;8.746;2023-04-21T09:46:32;18.10;52.00
28548;DHT22;68292;49.600;8.746;2023-04-21T09:49:03;18.20;52.70
28548;DHT22;68292;49.600;8.746;2023-04-21T09:51:32;18.30;52.10
28548;DHT22;68292;49.600;8.746;2023-04-21T09:54:15;18.40;52.10
28548;DHT22;68292;49.600;8.746;2023-04-21T09:56:58;18.60;51.90
28548;DHT22;68292;49.600;8.746;2023-04-21T09:59:29;18.80;52.30
28548;DHT22;68292;49.600;8.746;2023-04-21T10:02:03;19.00;52.50
28548;DHT22;68292;49.600;8.746;2023-04-21T10:04:34;19.20;52.50
28548;DHT22;68292;49.600;8.746;2023-04-21T10:07:05;19.40;52.40
28548;DHT22;68292;49.600;8.746;2023-04-21T10:09:39;19.60;52.30
28548;DHT22;68292;49.600;8.746;2023-04-21T10:12:12;19.80;52.20
28548;DHT22;68292;49.600;8.746;2023-04-21T10:14:41;20.00;52.00
28548;DHT22;68292;49.600;8.746;2023-04-21T10:17:10;20.30;52.20
28548;DHT22;68292;49.600;8.746;2023-04-21T10:19:48;20.40;52.20
28548;DHT22;68292;49.600;8.746;2023-04-21T10:22:28;20.70;51.70
28548;DHT22;68292;49.600;8.746;2023-04-21T10:24:59;20.90;51.30
28548;DHT22;68292;49.600;8.746;2023-04-21T10:27:35;21.20;51.30
28548;DHT22;68292;49.600;8.746;2023-04-21T10:30:18;21.30;51.20
28548;DHT22;68292;49.600;8.746;2023-04-21T10:32:49;21.60;51.00
28548;DHT22;68292;49.600;8.746;2023-04-21T10:35:57;21.80;51.30
28548;DHT22;68292;49.600;8.746;2023-04-21T10:38:33;22.00;51.40
28548;DHT22;68292;49.600;8.746;2023-04-21T10:41:26;22.20;50.70
28548;DHT22;68292;49.600;8.746;2023-04-21T10:43:58;22.40;50.50
28548;DHT22;68292;49.600;8.746;2023-04-21T10:46:31;22.60;49.90
28548;DHT22;68292;49.600;8.746;2023-04-21T10:49:07;22.70;49.50
28548;DHT22;68292;49.600;8.746;2023-04-21T10:52:02;22.80;48.90
28548;DHT22;68292;49.600;8.746;2023-04-21T10:54:41;22.80;48.70
28548;DHT22;68292;49.600;8.746;2023-04-21T10:57:31;22.80;48.30
28548;DHT22;68292;49.600;8.746;2023-04-21T11:00:06;22.80;47.80
28548;DHT22;68292;49.600;8.746;2023-04-21T11:02:36;22.60;47.40
28548;DHT22;68292;49.600;8.746;2023-04-21T11:05:09;22.60;47.40
28548;DHT22;68292;49.600;8.746;2023-04-21T11:07:38;22.40;47.50
28548;DHT22;68292;49.600;8.746;2023-04-21T11:10:08;22.20;47.40
28548;DHT22;68292;49.600;8.746;2023-04-21T11:12:39;22.10;47.40
28548;DHT22;68292;49.600;8.746;2023-04-21T11:15:11;21.90;47.50
28548;DHT22;68292;49.600;8.746;2023-04-21T11:17:44;21.80;47.80
28548;DHT22;68292;49.600;8.746;2023-04-21T11:20:14;21.60;48.10
28548;DHT22;68292;49.600;8.746;2023-04-21T11:22:42;21.40;48.10
28548;DHT22;68292;49.600;8.746;2023-04-21T11:25:16;21.30;48.40
28548;DHT22;68292;49.600;8.746;2023-04-21T11:27:52;21.10;48.80
28548;DHT22;68292;49.600;8.746;2023-04-21T11:30:31;21.00;49.00
28548;DHT22;68292;49.600;8.746;2023-04-21T11:33:01;20.90;49.00
28548;DHT22;68292;49.600;8.746;2023-04-21T11:35:30;20.80;49.10
28548;DHT22;68292;49.600;8.746;2023-04-21T11:38:03;20.70;49.40
28548;DHT22;68292;49.600;8.746;2023-04-21T11:40:44;20.60;49.70
28548;DHT22;68292;49.600;8.746;2023-04-21T11:43:13;20.50;49.90
28548;DHT22;68292;49.600;8.746;2023-04-21T11:45:47;20.40;49.60
28548;DHT22;68292;49.600;8.746;2023-04-21T11:48:17;20.30;50.00
28548;DHT22;68292;49.600;8.746;2023-04-21T11:50:48;20.20;50.00
28548;DHT22;68292;49.600;8.746;2023-04-21T11:53:18;20.10;50.10
28548;DHT22;68292;49.600;8.746;2023-04-21T11:55:47;20.00;50.50
28548;DHT22;68292;49.600;8.746;2023-04-21T11:58:15;20.00;50.40
28548;DHT22;68292;49.600;8.746;2023-04-21T12:00:46;19.90;50.40
28548;DHT22;68292;49.600;8.746;2023-04-21T12:03:14;19.80;50.50
28548;DHT22;68292;49.600;8.746;2023-04-21T12:05:43;19.80;50.40
28548;DHT22;68292;49.600;8.746;2023-04-21T12:08:13;19.80;50.50
28548;DHT22;68292;49.600;8.746;2023-04-21T12:10:45;19.70;51.10
28548;DHT22;68292;49.600;8.746;2023-04-21T12:13:21;19.60;50.60
28548;DHT22;68292;49.600;8.746;2023-04-21T12:15:51;19.70;50.90
28548;DHT22;68292;49.600;8.746;2023-04-21T12:18:20;19.60;50.60
28548;DHT22;68292;49.600;8.746;2023-04-21T12:20:49;19.60;50.60
28548;DHT22;68292;49.600;8.746;2023-04-21T12:23:18;19.60;50.60
28548;DHT22;68292;49.600;8.746;2023-04-21T12:25:47;19.60;50.60
28548;DHT22;68292;49.600;8.746;2023-04-21T12:28:17;19.50;50.80
28548;DHT22;68292;49.600;8.746;2023-04-21T12:30:45;19.50;50.70
28548;DHT22;68292;49.600;8.746;2023-04-21T12:33:15;19.50;51.10
28548;DHT22;68292;49.600;8.746;2023-04-21T12:35:44;19.50;51.20
28548;DHT22;68292;49.600;8.746;2023-04-21T12:38:13;19.50;51.10
28548;DHT22;68292;49.600;8.746;2023-04-21T12:40:42;19.50;51.20
28548;DHT22;68292;49.600;8.746;2023-04-21T12:43:10;19.50;51.20
28548;DHT22;68292;49.600;8.746;2023-04-21T12:45:39;19.50;51.40
28548;DHT22;68292;49.600;8.746;2023-04-21T12:48:08;19.50;51.40
28548;DHT22;68292;49.600;8.746;2023-04-21T12:50:38;19.50;51.40
28548;DHT22;68292;49.600;8.746;2023-04-21T12:53:06;19.50;51.40
28548;DHT22;68292;49.600;8.746;2023-04-21T12:55:35;19.50;51.30
28548;DHT22;68292;49.600;8.746;2023-04-21T12:58:05;19.50;51.20
28548;DHT22;68292;49.600;8.746;2023-04-21T13:00:33;19.50;51.20
28548;DHT22;68292;49.600;8.746;2023-04-21T13:03:02;19.40;51.20
28548;DHT22;68292;49.600;8.746;2023-04-21T13:05:31;19.40;51.30
28548;DHT22;68292;49.600;8.746;2023-04-21T13:08:01;19.40;51.30
28548;DHT22;68292;49.600;8.746;2023-04-21T13:10:30;19.40;51.40
28548;DHT22;68292;49.600;8.746;2023-04-21T13:12:59;19.40;51.40
28548;DHT22;68292;49.600;8.746;2023-04-21T13:15:28;19.40;51.40
28548;DHT22;68292;49.600;8.746;2023-04-21T13:17:57;19.40;51.30
28548;DHT22;68292;49.600;8.746;2023-04-21T13:20:25;19.40;51.40
28548;DHT22;68292;49.600;8.746;2023-04-21T13:22:54;19.40;51.40
28548;DHT22;68292;49.600;8.746;2023-04-21T13:25:24;19.40;51.50
28548;DHT22;68292;49.600;8.746;2023-04-21T13:27:53;19.40;51.50
28548;DHT22;68292;49.600;8.746;2023-04-21T13:30:21;19.40;51.50
28548;DHT22;68292;49.600;8.746;2023-04-21T13:32:50;19.40;51.40
28548;DHT22;68292;49.600;8.746;2023-04-21T13:35:19;19.50;51.50
28548;DHT22;68292;49.600;8.746;2023-04-21T13:37:47;19.40;51.50
28548;DHT22;68292;49.600;8.746;2023-04-21T13:40:16;19.50;51.50
28548;DHT22;68292;49.600;8.746;2023-04-21T13:42:46;19.50;51.50
28548;DHT22;68292;49.600;8.746;2023-04-21T13:45:15;19.50;51.70
28548;DHT22;68292;49.600;8.746;2023-04-21T13:47:43;19.50;51.60
28548;DHT22;68292;49.600;8.746;2023-04-21T13:50:12;19.50;51.60
28548;DHT22;68292;49.600;8.746;2023-04-21T13:52:41;19.50;51.60
28548;DHT22;68292;49.600;8.746;2023-04-21T13:55:10;19.50;51.60
28548;DHT22;68292;49.600;8.746;2023-04-21T13:57:39;19.50;51.60
28548;DHT22;68292;49.600;8.746;2023-04-21T14:00:10;19.50;51.60
28548;DHT22;68292;49.600;8.746;2023-04-21T14:02:39;19.60;51.60
28548;DHT22;68292;49.600;8.746;2023-04-21T14:05:08;19.60;51.60
28548;DHT22;68292;49.600;8.746;2023-04-21T14:07:37;19.60;51.70
28548;DHT22;68292;49.600;8.746;2023-04-21T14:10:07;19.70;51.70
28548;DHT22;68292;49.600;8.746;2023-04-21T14:12:37;19.60;51.60
28548;DHT22;68292;49.600;8.746;2023-04-21T14:15:07;19.60;51.70
28548;DHT22;68292;49.600;8.746;2023-04-21T14:17:37;19.70;51.50
28548;DHT22;68292;49.600;8.746;2023-04-21T14:20:07;19.70;51.30
28548;DHT22;68292;49.600;8.746;2023-04-21T14:22:36;19.70;51.10
28548;DHT22;68292;49.600;8.746;2023-04-21T14:25:05;19.70;51.30
28548;DHT22;68292;49.600;8.746;2023-04-21T14:27:34;19.70;51.20
28548;DHT22;68292;49.600;8.746;2023-04-21T14:30:03;19.80;51.30
28548;DHT22;68292;49.600;8.746;2023-04-21T14:32:34;19.80;51.20
28548;DHT22;68292;49.600;8.746;2023-04-21T14:35:04;19.80;51.10
28548;DHT22;68292;49.600;8.746;2023-04-21T14:37:33;19.80;51.10
28548;DHT22;68292;49.600;8.746;2023-04-21T14:40:02;19.80;51.10
28548;DHT22;68292;49.600;8.746;2023-04-21T14:42:33;19.80;51.10
28548;DHT22;68292;49.600;8.746;2023-04-21T14:45:02;19.90;51.20
28548;DHT22;68292;49.600;8.746;2023-04-21T14:47:31;19.90;51.10
28548;DHT22;68292;49.600;8.746;2023-04-21T14:50:02;19.90;51.10
28548;DHT22;68292;49.600;8.746;2023-04-21T14:52:32;19.90;51.10
28548;DHT22;68292;49.600;8.746;2023-04-21T14:55:01;19.90;51.10
28548;DHT22;68292;49.600;8.746;2023-04-21T14:57:30;19.90;51.00
28548;DHT22;68292;49.600;8.746;2023-04-21T14:59:58;20.00;51.00
28548;DHT22;68292;49.600;8.746;2023-04-21T15:02:28;20.00;50.80
28548;DHT22;68292;49.600;8.746;2023-04-21T15:04:58;20.00;50.80
28548;DHT22;68292;49.600;8.746;2023-04-21T15:07:29;20.00;50.60
28548;DHT22;68292;49.600;8.746;2023-04-21T15:09:58;20.00;50.60
28548;DHT22;68292;49.600;8.746;2023-04-21T15:12:27;20.00;50.60
28548;DHT22;68292;49.600;8.746;2023-04-21T15:14:56;20.00;50.60
28548;DHT22;68292;49.600;8.746;2023-04-21T15:17:24;20.10;50.60
28548;DHT22;68292;49.600;8.746;2023-04-21T15:19:53;20.00;50.50
28548;DHT22;68292;49.600;8.746;2023-04-21T15:22:22;20.00;50.50
28548;DHT22;68292;49.600;8.746;2023-04-21T15:24:52;20.00;50.50
28548;DHT22;68292;49.600;8.746;2023-04-21T15:27:21;20.10;50.50
28548;DHT22;68292;49.600;8.746;2023-04-21T15:29:49;20.10;50.50
28548;DHT22;68292;49.600;8.746;2023-04-21T15:32:18;20.10;50.50
28548;DHT22;68292;49.600;8.746;2023-04-21T15:34:47;20.10;50.60
28548;DHT22;68292;49.600;8.746;2023-04-21T15:37:16;20.20;50.70
28548;DHT22;68292;49.600;8.746;2023-04-21T15:39:46;20.20;50.60
28548;DHT22;68292;49.600;8.746;2023-04-21T15:42:16;20.20;50.60
28548;DHT22;68292;49.600;8.746;2023-04-21T15:44:45;20.20;50.70
28548;DHT22;68292;49.600;8.746;2023-04-21T15:47:14;20.20;50.70
28548;DHT22;68292;49.600;8.746;2023-04-21T15:49:43;20.20;50.70